Time;durP1;ratioP1;P1;durP2;ratioP2;P2;SDS_P1;SDS_P2;PMS_P1;PMS_P2;Temp;Humidity;BMP_temperature;BMP_pressure;BME280_temperature;BME280_humidity;BME280_pressure;Samples;Min_cycle;Max_cycle;Signal;HPM_P1;HPM_P2
2022/03/21 00:01:12;;;;;;;0.30;0.30;;;6.30;99.90;;;6.64;76.99;100596.72;4915708;29;20219;-73
2022/03/21 00:03:40;;;;;;;0.30;0.30;;;6.40;99.90;;;6.63;76.37;100585.31;4932670;29;20227;-73
2022/03/21 00:06:09;;;;;;;0.30;0.30;;;6.50;99.90;;;6.67;75.66;100579.28;4934467;29;20211;-76
2022/03/21 00:08:37;;;;;;;0.50;0.50;;;6.40;99.90;;;6.65;76.09;100574.84;4933053;29;20210;-74
2022/03/21 00:11:05;;;;;;;0.30;0.30;;;6.40;99.90;;;6.64;76.16;100576.59;4933823;29;20234;-74
2022/03/21 00:13:35;;;;;;;0.30;0.30;;;6.40;99.90;;;6.66;76.20;100582.78;4935042;29;20210;-74
2022/03/21 00:16:04;;;;;;;0.40;0.40;;;6.50;99.90;;;6.83;74.77;100580.59;4934318;29;20230;-75
2022/03/21 00:18:34;;;;;;;0.30;0.30;;;;;;;6.32;77.14;100551.13;4934481;29;20582;-73
2022/03/21 00:21:01;;;;;;;0.30;0.30;;;6.40;99.90;;;6.48;75.71;100557.69;4933435;29;20303;-73
2022/03/21 00:23:30;;;;;;;0.30;0.30;;;6.30;99.90;;;6.53;77.22;100561.38;4934105;29;20238;-73
2022/03/21 00:25:58;;;;;;;0.30;0.30;;;6.30;99.90;;;6.13;78.10;100541.84;4932647;29;20205;-73
2022/03/21 00:28:25;;;;;;;0.40;0.40;;;6.20;99.90;;;6.52;75.46;100578.00;4934213;29;20221;-73
2022/03/21 00:30:54;;;;;;;0.30;0.30;;;6.20;99.90;;;6.05;80.61;100569.63;4916191;29;20233;-74
2022/03/21 00:33:22;;;;;;;0.30;0.30;;;6.20;99.90;;;5.94;82.31;100602.53;4934229;29;20207;-73
2022/03/21 00:35:50;;;;;;;0.30;0.30;;;6.10;99.90;;;5.95;80.43;100599.97;4917284;29;20679;-73
2022/03/21 00:38:20;;;;;;;0.30;0.30;;;6.00;99.90;;;6.09;79.05;100587.25;4930963;29;20230;-73
2022/03/21 00:40:49;;;;;;;0.30;0.30;;;;;;;5.96;78.74;100567.63;4909005;29;20242;-73
2022/03/21 00:43:23;;;;;;;0.30;0.30;;;6.00;99.90;;;6.24;77.79;100577.19;4924875;29;20233;-74
2022/03/21 00:45:53;;;;;;;0.50;0.50;;;6.00;99.90;;;6.28;76.55;100565.03;4928251;29;20203;-74
2022/03/21 00:48:23;;;;;;;0.30;0.30;;;6.00;99.90;;;6.24;75.62;100540.41;4915922;29;20219;-74
2022/03/21 00:50:53;;;;;;;0.40;0.40;;;6.00;99.90;;;5.99;77.00;100520.47;4933043;29;20225;-74
2022/03/21 00:53:22;;;;;;;0.40;0.40;;;;;;;5.89;78.91;100554.22;4930480;29;20222;-78
2022/03/21 00:55:50;;;;;;;0.40;0.40;;;;;;;5.84;79.37;100558.47;4929370;29;20209;-77
2022/03/21 00:58:18;;;;;;;0.40;0.40;;;;;;;5.72;80.17;100566.84;4922706;29;20209;-74
2022/03/21 01:00:46;;;;;;;0.30;0.30;;;5.80;99.90;;;5.72;79.59;100562.50;4909275;29;20229;-74
2022/03/21 01:03:15;;;;;;;0.30;0.30;;;;;;;5.90;77.92;100563.91;4926874;29;20231;-73
2022/03/21 01:05:43;;;;;;;1.65;1.58;;;5.80;99.90;;;5.67;78.65;100556.22;4932736;29;20214;-73
2022/03/21 01:08:11;;;;;;;0.30;0.30;;;;;;;5.85;80.33;100581.22;4932960;29;20207;-74
2022/03/21 01:10:39;;;;;;;0.30;0.30;;;;;;;5.76;79.33;100573.97;4931850;29;20223;-74
2022/03/21 01:13:07;;;;;;;0.60;0.60;;;5.70;99.90;;;5.64;81.39;100573.59;4932636;29;20214;-73
2022/03/21 01:15:35;;;;;;;0.40;0.40;;;;;;;5.67;79.86;100578.94;4934274;29;20655;-73
2022/03/21 01:18:03;;;;;;;0.57;0.57;;;5.80;99.90;;;5.69;79.55;100572.00;4916071;29;20199;-74
2022/03/21 01:20:31;;;;;;;0.43;0.43;;;5.70;99.90;;;5.39;82.79;100587.66;4932256;29;20232;-73
2022/03/21 01:23:00;;;;;;;0.30;0.30;;;;;;;5.46;80.45;100581.78;4933148;29;20241;-76
2022/03/21 01:25:28;;;;;;;0.40;0.40;;;5.60;99.90;;;5.63;79.44;100587.56;4916760;29;20206;-73
2022/03/21 01:27:56;;;;;;;0.40;0.40;;;;;;;5.65;78.33;100576.25;4932466;29;20215;-78
2022/03/21 01:30:24;;;;;;;0.30;0.30;;;5.50;99.90;;;5.65;77.32;100557.91;4932611;29;20226;-73
2022/03/21 01:32:51;;;;;;;0.30;0.30;;;5.50;99.90;;;5.69;78.82;100577.25;4933386;29;20203;-73
2022/03/21 01:35:21;;;;;;;0.40;0.40;;;5.50;99.90;;;5.53;81.95;100599.50;4933119;29;20229;-74
2022/03/21 01:37:49;;;;;;;0.40;0.40;;;5.50;99.90;;;5.12;82.67;100587.63;4932655;29;20215;-74
2022/03/21 01:40:18;;;;;;;0.40;0.40;;;;;;;5.10;82.80;100595.44;4915793;29;20231;-72
2022/03/21 01:42:47;;;;;;;0.40;0.40;;;;;;;5.35;81.86;100626.03;4932421;29;20210;-72
2022/03/21 01:45:17;;;;;;;0.43;0.43;;;5.40;99.90;;;5.37;82.24;100629.59;4932297;29;20218;-72
2022/03/21 01:47:46;;;;;;;0.30;0.30;;;5.40;99.90;;;5.43;79.53;100610.53;4931850;29;20226;-72
2022/03/21 01:50:15;;;;;;;1.85;1.65;;;5.40;99.90;;;5.27;80.05;100590.78;4932886;29;20222;-72
2022/03/21 01:52:44;;;;;;;0.30;0.30;;;5.40;99.90;;;5.35;79.75;100597.16;4917133;29;20211;-72
2022/03/21 01:58:00;;;;;;;0.30;0.30;;;5.20;99.90;;;5.14;79.98;100588.56;4926768;29;20218;-71
2022/03/21 02:00:29;;;;;;;0.30;0.30;;;5.30;99.90;;;5.34;78.69;100595.38;4913721;29;20231;-71
2022/03/21 02:02:57;;;;;;;0.40;0.40;;;;;;;5.06;83.15;100611.00;4920303;29;20214;-72
2022/03/21 02:05:27;;;;;;;0.40;0.40;;;5.10;99.90;;;5.06;85.44;100653.84;4916139;29;20225;-72
2022/03/21 02:07:55;;;;;;;0.30;0.30;;;5.10;99.90;;;5.30;81.86;100645.97;4915484;29;20582;-72
2022/03/21 02:10:23;;;;;;;0.40;0.40;;;5.20;99.90;;;5.36;81.16;100647.88;4931615;29;20234;-72
2022/03/21 02:12:51;;;;;;;0.40;0.40;;;;;;;5.17;80.07;100612.25;4932033;29;20218;-71
2022/03/21 02:15:19;;;;;;;0.38;0.38;;;5.20;99.90;;;5.24;79.25;100603.78;4931684;29;20209;-71
2022/03/21 02:17:54;;;;;;;0.40;0.40;;;5.10;99.90;;;4.92;82.04;100615.78;4932745;29;20218;-72
2022/03/21 02:20:24;;;;;;;0.40;0.40;;;5.10;99.90;;;5.04;82.25;100628.41;4929776;29;20222;-72
2022/03/21 02:23:25;;;;;;;0.20;0.20;;;5.00;99.90;;;5.20;80.03;100627.22;4927950;29;20222;-72
2022/03/21 02:25:55;;;;;;;0.38;0.38;;;5.00;99.90;;;4.98;81.50;100610.75;4919463;29;20205;-72
2022/03/21 02:28:26;;;;;;;0.40;0.40;;;5.00;99.90;;;4.82;82.70;100624.16;4926003;29;20210;-72
2022/03/21 02:30:55;;;;;;;0.30;0.30;;;5.00;99.90;;;4.83;81.86;100621.59;4902916;29;20223;-71
2022/03/21 02:33:24;;;;;;;0.30;0.30;;;4.90;99.90;;;5.10;80.15;100636.50;4935017;29;20676;-71
2022/03/21 02:35:56;;;;;;;0.40;0.40;;;4.90;99.90;;;5.05;79.75;100614.47;4935932;29;20640;-72
2022/03/21 02:38:26;;;;;;;0.40;0.40;;;4.90;99.90;;;4.87;82.07;100626.94;4936084;29;20218;-72
2022/03/21 02:40:54;;;;;;;0.40;0.40;;;4.80;99.90;;;4.79;85.39;100666.88;4919498;29;20226;-72
2022/03/21 02:43:22;;;;;;;0.38;0.38;;;;;;;4.69;83.94;100656.00;4935811;29;20230;-72
2022/03/21 02:45:50;;;;;;;0.40;0.40;;;4.90;99.90;;;5.01;81.45;100668.53;4935982;29;20210;-72
2022/03/21 02:48:20;;;;;;;0.30;0.30;;;;;;;4.78;82.45;100646.75;4935054;29;20210;-72
2022/03/21 02:51:01;;;;;;;0.40;0.40;;;4.90;99.90;;;5.15;79.77;100682.09;4934881;29;20222;-72
2022/03/21 02:53:32;;;;;;;0.20;0.20;;;5.00;99.90;;;5.03;79.93;100658.97;4932459;29;20245;-71
2022/03/21 02:56:01;;;;;;;0.30;0.30;;;5.10;99.90;;;5.08;79.88;100665.28;4935760;29;20207;-71
2022/03/21 02:58:29;;;;;;;0.40;0.40;;;5.00;99.90;;;4.80;87.86;100702.72;4934054;29;20218;-72
2022/03/21 03:01:08;;;;;;;0.30;0.30;;;5.00;99.90;;;4.72;86.97;100726.84;4935226;29;20226;-71
2022/03/21 03:03:37;;;;;;;0.40;0.40;;;5.00;99.90;;;4.83;87.03;100751.72;4931823;29;20241;-72
2022/03/21 03:06:06;;;;;;;0.40;0.40;;;4.90;99.90;;;5.08;83.61;100758.75;4923019;29;20218;-71
2022/03/21 03:08:37;;;;;;;0.40;0.40;;;4.90;99.90;;;5.08;82.98;100741.28;4935384;29;20203;-71
2022/03/21 03:11:06;;;;;;;0.40;0.40;;;4.90;99.90;;;5.12;83.18;100740.56;4934602;29;20226;-72
2022/03/21 03:13:33;;;;;;;0.65;0.65;;;4.90;99.90;;;5.08;82.74;100746.53;4935680;29;20210;-71
2022/03/21 03:16:02;;;;;;;0.40;0.40;;;5.00;99.90;;;5.08;84.59;100764.88;4924925;29;20207;-71
2022/03/21 03:18:30;;;;;;;0.40;0.40;;;5.10;99.90;;;5.12;84.33;100784.25;4905910;29;20262;-72
2022/03/21 03:20:59;;;;;;;0.40;0.40;;;5.10;99.90;;;5.17;83.89;100784.41;4925488;29;20230;-71
2022/03/21 03:23:31;;;;;;;0.50;0.50;;;5.10;99.90;;;5.19;84.16;100790.59;4930332;29;20207;-72
2022/03/21 03:26:04;;;;;;;0.30;0.30;;;5.00;99.90;;;5.19;85.25;100812.47;4918687;29;20214;-72
2022/03/21 03:28:33;;;;;;;0.40;0.40;;;5.10;99.90;;;5.26;83.48;100811.00;4928775;29;20219;-71
2022/03/21 03:31:16;;;;;;;0.40;0.40;;;5.10;99.90;;;5.37;82.29;100807.03;4930518;29;20230;-72
2022/03/21 03:33:46;;;;;;;0.35;0.35;;;5.10;99.90;;;5.43;80.81;100800.25;4926540;29;20203;-72
2022/03/21 03:36:15;;;;;;;0.65;0.65;;;5.10;99.90;;;5.32;81.74;100790.22;4935102;29;20223;-72
2022/03/21 03:38:45;;;;;;;0.40;0.40;;;5.20;99.90;;;5.37;81.80;100801.78;4930524;29;20623;-71
2022/03/21 03:41:15;;;;;;;0.40;0.40;;;5.30;99.90;;;5.42;82.14;100808.97;4935738;29;20612;-72
2022/03/21 03:43:43;;;;;;;0.38;0.38;;;5.30;99.90;;;5.42;82.26;100814.22;4922653;29;20215;-73
2022/03/21 03:46:11;;;;;;;0.30;0.30;;;5.50;99.90;;;5.44;83.22;100827.38;4915503;29;20212;-72
2022/03/21 03:48:41;;;;;;;1.20;1.20;;;5.60;99.90;;;5.52;82.04;100833.81;4926004;29;20223;-72
2022/03/21 03:51:11;;;;;;;0.40;0.40;;;5.60;99.90;;;5.48;82.69;100837.16;4933070;29;20237;-72
2022/03/21 03:53:40;;;;;;;0.20;0.20;;;5.60;99.90;;;5.52;81.82;100836.44;4925532;29;20206;-72
2022/03/21 03:56:09;;;;;;;0.30;0.30;;;5.50;99.90;;;5.57;81.06;100832.22;4928215;29;20217;-72
2022/03/21 03:58:38;;;;;;;0.40;0.40;;;5.50;99.90;;;5.70;81.02;100854.53;4934751;29;20207;-72
2022/03/21 04:01:06;;;;;;;0.40;0.40;;;5.50;99.90;;;5.72;80.46;100853.75;4915976;29;20234;-72
2022/03/21 04:03:47;;;;;;;0.43;0.43;;;5.50;99.90;;;5.71;80.71;100848.47;4921413;29;20215;-71
2022/03/21 04:06:24;;;;;;;0.40;0.40;;;5.60;99.90;;;5.66;81.53;100857.91;4917360;29;20215;-72
2022/03/21 04:08:52;;;;;;;0.30;0.30;;;5.60;99.90;;;5.86;81.04;100876.97;4931451;29;20202;-71
2022/03/21 04:11:21;;;;;;;0.40;0.40;;;5.60;99.90;;;5.87;80.55;100871.78;4922927;29;20226;-71
2022/03/21 04:13:49;;;;;;;0.30;0.30;;;5.70;99.90;;;5.84;80.95;100879.53;4934503;29;20202;-74
2022/03/21 04:16:17;;;;;;;0.40;0.40;;;5.70;99.90;;;5.99;80.44;100892.34;4934202;29;20221;-73
2022/03/21 04:18:45;;;;;;;0.30;0.30;;;5.80;99.90;;;5.99;80.41;100892.34;4917546;29;20199;-72
2022/03/21 04:21:28;;;;;;;0.30;0.30;;;5.80;99.90;;;5.92;81.42;100892.97;4934069;29;20210;-73
2022/03/21 04:23:58;;;;;;;0.30;0.30;;;;;;;5.84;82.53;100910.16;4933903;29;20209;-74
2022/03/21 04:26:26;;;;;;;0.20;0.20;;;5.80;99.90;;;5.84;83.17;100913.66;4934346;29;20210;-72
2022/03/21 04:28:57;;;;;;;0.75;0.75;;;5.90;99.90;;;5.82;83.22;100922.31;4930855;29;20657;-73
2022/03/21 04:31:26;;;;;;;0.30;0.30;;;5.90;99.90;;;5.83;82.67;100911.88;4933944;29;20233;-73
2022/03/21 04:33:54;;;;;;;0.40;0.40;;;5.90;99.90;;;5.82;82.78;100914.44;4933782;29;20213;-73
2022/03/21 04:36:22;;;;;;;0.30;0.30;;;5.80;99.90;;;5.75;84.54;100929.06;4933746;29;20219;-74
2022/03/21 04:38:50;;;;;;;0.38;0.38;;;5.80;99.90;;;5.81;83.33;100931.94;4933241;29;20207;-74
2022/03/21 04:41:18;;;;;;;0.40;0.40;;;5.80;99.90;;;5.84;82.77;100925.91;4933393;29;20234;-73
2022/03/21 04:43:46;;;;;;;0.40;0.40;;;5.80;99.90;;;5.81;82.98;100924.06;4934524;29;20229;-73
2022/03/21 04:46:15;;;;;;;0.30;0.30;;;;;;;5.87;82.40;100934.78;4933015;29;20226;-73
2022/03/21 04:48:43;;;;;;;0.30;0.30;;;5.80;99.90;;;5.88;81.51;100925.16;4920262;29;20199;-74
2022/03/21 04:51:11;;;;;;;0.40;0.40;;;5.80;99.90;;;5.83;81.60;100922.38;4933405;29;20236;-74
2022/03/21 04:53:39;;;;;;;0.40;0.40;;;;;;;5.92;80.23;100917.47;4933207;29;20567;-73
2022/03/21 04:56:07;;;;;;;0.30;0.30;;;5.90;99.90;;;5.91;79.97;100905.19;4933566;29;20214;-73
2022/03/21 04:58:35;;;;;;;0.30;0.30;;;5.90;99.90;;;5.86;79.95;100900.59;4932860;29;20203;-74
2022/03/21 05:01:03;;;;;;;0.30;0.30;;;5.80;99.90;;;5.78;80.15;100895.06;4928708;29;20242;-73
2022/03/21 05:03:32;;;;;;;0.40;0.40;;;5.80;99.90;;;5.81;79.64;100899.53;4928189;29;20321;-73
2022/03/21 05:06:00;;;;;;;0.47;0.47;;;5.80;99.90;;;5.83;79.09;100900.47;4916757;29;20230;-74
2022/03/21 05:08:29;;;;;;;0.30;0.30;;;;;;;5.80;78.66;100885.53;4932861;29;20219;-73
2022/03/21 05:10:57;;;;;;;0.20;0.20;;;5.80;99.90;;;5.76;79.75;100895.00;4932312;29;20237;-74
2022/03/21 05:13:25;;;;;;;0.30;0.30;;;;;;;5.77;79.52;100891.56;4932888;29;20215;-72
2022/03/21 05:15:53;;;;;;;0.30;0.30;;;5.80;99.90;;;5.75;80.50;100905.47;4932485;29;20199;-73
2022/03/21 05:18:22;;;;;;;0.50;0.50;;;;;;;5.74;79.92;100901.06;4932989;29;20207;-73
2022/03/21 05:20:50;;;;;;;0.30;0.30;;;;;;;5.64;80.93;100901.56;4931937;29;20710;-74
2022/03/21 05:31:38;;;;;;;0.30;0.30;;;5.60;99.90;;;5.57;80.84;100897.81;4932793;29;20687;-77
2022/03/21 05:36:53;;;;;;;0.20;0.20;;;5.60;99.90;;;5.61;79.52;100883.09;4932524;29;20210;-77
2022/03/21 05:39:24;;;;;;;0.20;0.20;;;5.60;99.90;;;5.60;79.45;100884.81;4932806;29;20226;-77
2022/03/21 05:41:53;;;;;;;0.30;0.30;;;5.60;99.90;;;5.70;78.46;100888.66;4932874;29;20199;-77
2022/03/21 05:44:20;;;;;;;0.22;0.22;;;5.60;99.90;;;5.78;77.63;100890.72;4932620;29;20210;-76
2022/03/21 05:46:49;;;;;;;0.35;0.35;;;;;;;5.81;77.62;100892.56;4926968;29;20226;-77
2022/03/21 05:49:17;;;;;;;0.60;0.60;;;;;;;5.79;77.71;100888.97;4924986;29;20210;-75
2022/03/21 05:51:45;;;;;;;0.40;0.40;;;5.80;99.90;;;5.93;76.66;100897.38;4926932;29;20206;-74
2022/03/21 05:54:14;;;;;;;0.30;0.30;;;5.80;99.90;;;5.80;77.31;100888.16;4933118;29;20234;-75
2022/03/21 05:56:43;;;;;;;0.30;0.30;;;5.80;99.90;;;5.80;77.67;100888.16;4932233;29;20218;-75
2022/03/21 06:01:58;;;;;;;0.30;0.30;;;5.70;99.90;;;5.81;77.82;100897.81;4923017;29;20203;-76
2022/03/21 06:04:26;;;;;;;1.00;1.00;;;5.70;99.90;;;5.84;77.45;100903.16;4921263;29;20218;-76
2022/03/21 06:06:55;;;;;;;0.30;0.30;;;5.80;99.90;;;5.83;77.56;100900.47;4931665;29;20233;-74
2022/03/21 06:09:23;;;;;;;0.30;0.30;;;5.80;99.90;;;5.79;78.77;100899.47;4932098;29;20226;-74
2022/03/21 06:11:51;;;;;;;0.30;0.30;;;5.80;99.90;;;5.85;77.98;100915.44;4931515;29;20213;-73
2022/03/21 06:14:20;;;;;;;0.30;0.30;;;5.80;99.90;;;5.94;77.40;100923.69;4931806;29;20205;-73
2022/03/21 06:16:49;;;;;;;0.40;0.40;;;5.80;99.90;;;5.93;78.61;100921.91;4925504;29;20217;-73
2022/03/21 06:19:18;;;;;;;0.40;0.40;;;5.90;99.90;;;6.02;77.06;100932.72;4926773;29;20211;-73
2022/03/21 06:21:46;;;;;;;0.30;0.30;;;5.90;99.90;;;6.05;77.01;100935.44;4928900;29;20207;-73
2022/03/21 06:24:15;;;;;;;0.40;0.40;;;5.90;99.90;;;6.03;77.39;100939.75;4924997;29;20211;-74
2022/03/21 06:26:43;;;;;;;0.30;0.30;;;6.00;99.90;;;6.20;75.21;100944.69;4923757;29;20230;-72
2022/03/21 06:29:11;;;;;;;0.30;0.30;;;6.00;99.90;;;6.21;74.95;100930.72;4930993;29;20202;-73
2022/03/21 06:31:39;;;;;;;0.45;0.45;;;6.10;99.90;;;6.22;75.43;100938.66;4932174;29;20211;-74
2022/03/21 06:34:08;;;;;;;0.30;0.30;;;;;;;6.31;74.66;100944.22;4931425;29;20213;-73
2022/03/21 06:36:36;;;;;;;0.30;0.30;;;;;;;6.40;72.92;100914.75;4911824;29;20209;-74
2022/03/21 06:39:05;;;;;;;0.40;0.40;;;6.30;99.90;;;6.45;72.61;100921.06;4923916;29;20211;-74
2022/03/21 06:41:33;;;;;;;0.30;0.30;;;6.30;99.90;;;6.42;73.59;100929.72;4918801;29;20668;-74
2022/03/21 06:44:01;;;;;;;0.30;0.30;;;6.30;99.90;;;6.57;72.28;100918.88;4930203;29;20218;-77
2022/03/21 06:46:29;;;;;;;0.20;0.20;;;6.40;99.90;;;6.60;71.69;100907.56;4932015;29;20230;-73
2022/03/21 06:48:57;;;;;;;0.30;0.30;;;6.40;99.90;;;6.70;69.87;100893.88;4931640;29;20210;-73
2022/03/21 06:51:27;;;;;;;0.30;0.30;;;;;;;6.72;69.61;100882.56;4930738;29;20210;-73
2022/03/21 06:53:55;;;;;;;0.30;0.30;;;6.50;99.90;;;6.76;70.36;100880.03;4915027;29;20573;-73
2022/03/21 06:56:23;;;;;;;0.60;0.60;;;6.60;99.90;;;6.81;69.54;100876.69;4932556;29;20218;-73
2022/03/21 06:58:51;;;;;;;0.40;0.40;;;6.60;99.90;;;6.79;70.22;100881.00;4930931;29;20202;-73
2022/03/21 07:01:19;;;;;;;0.30;0.30;;;6.70;99.90;;;6.86;69.13;100867.22;4920330;29;20235;-73
2022/03/21 07:03:47;;;;;;;1.02;1.02;;;6.70;99.90;;;6.79;71.10;100882.75;4921948;29;20211;-73
2022/03/21 07:06:15;;;;;;;1.85;1.75;;;6.70;99.90;;;6.79;71.57;100891.53;4930274;29;20239;-76
2022/03/21 07:08:51;;;;;;;2.15;2.05;;;6.70;99.90;;;6.83;70.31;100885.53;4915301;29;20558;-81
2022/03/21 07:11:20;;;;;;;0.30;0.30;;;6.70;99.90;;;6.91;69.72;100886.66;4932909;29;20307;-74
2022/03/21 07:13:48;;;;;;;0.30;0.30;;;6.80;99.90;;;6.96;68.99;100874.53;4936489;29;20199;-73
2022/03/21 07:16:17;;;;;;;0.30;0.30;;;6.80;99.90;;;6.96;68.41;100860.50;4935955;29;20210;-73
2022/03/21 07:18:45;;;;;;;0.30;0.30;;;;;;;6.95;69.96;100882.38;4935018;29;20218;-73
2022/03/21 07:21:15;;;;;;;0.30;0.30;;;6.80;99.90;;;7.00;70.16;100904.44;4935922;29;20226;-73
2022/03/21 07:23:43;;;;;;;0.30;0.30;;;;;;;7.03;70.61;100901.91;4935847;29;20237;-72
2022/03/21 07:26:12;;;;;;;0.20;0.20;;;6.90;99.90;;;7.16;69.01;100904.06;4935458;29;20285;-75
2022/03/21 07:28:40;;;;;;;0.40;0.40;;;6.90;99.90;;;7.23;68.61;100894.63;4935379;29;20202;-74
2022/03/21 07:31:29;;;;;;;0.40;0.40;;;;;;;7.25;68.46;100888.56;4921925;29;20580;-73
2022/03/21 07:33:56;;;;;;;0.20;0.20;;;7.00;99.90;;;7.34;68.24;100880.03;4918332;29;20210;-73
2022/03/21 07:36:24;;;;;;;0.30;0.30;;;7.10;99.90;;;7.44;67.80;100894.34;4935217;29;20210;-72
2022/03/21 07:38:54;;;;;;;0.30;0.30;;;7.10;99.90;;;7.44;67.55;100878.56;4934834;29;20199;-74
2022/03/21 07:41:26;;;;;;;0.17;0.17;;;7.30;99.90;;;7.52;69.12;100908.63;4934988;29;20226;-72
2022/03/21 07:43:57;;;;;;;0.20;0.20;;;7.30;99.90;;;7.52;68.66;100906.00;4922424;29;20223;-74
2022/03/21 07:49:13;;;;;;;0.20;0.20;;;7.40;99.90;;;7.67;67.24;100881.00;4932466;29;20206;-73
2022/03/21 07:51:43;;;;;;;0.95;0.95;;;7.40;99.90;;;7.77;67.91;100903.22;4934270;29;20707;-75
2022/03/21 07:54:13;;;;;;;1.17;0.80;;;7.50;99.90;;;7.79;67.18;100880.44;4918278;29;20207;-74
2022/03/21 07:56:41;;;;;;;5.93;2.33;;;7.50;99.90;;;7.88;66.88;100893.91;4934438;29;20214;-73
2022/03/21 07:59:09;;;;;;;0.20;0.20;;;7.60;99.90;;;7.95;65.88;100873.88;4933707;29;20229;-74
2022/03/21 08:01:43;;;;;;;0.20;0.20;;;7.70;99.90;;;8.06;66.58;100889.97;4935256;29;20199;-77
2022/03/21 08:04:11;;;;;;;0.20;0.20;;;7.80;99.90;;;8.16;67.38;100902.53;4930900;29;20226;-75
2022/03/21 08:06:40;;;;;;;0.10;0.10;;;7.80;99.90;;;8.32;66.61;100921.41;4934883;29;20222;-75
2022/03/21 08:09:08;;;;;;;0.20;0.20;;;7.90;99.90;;;8.28;66.07;100890.56;4935211;29;20199;-73
2022/03/21 08:11:36;;;;;;;0.55;0.55;;;8.00;99.90;;;8.38;67.12;100907.53;4935504;29;20214;-74
2022/03/21 08:14:04;;;;;;;0.20;0.20;;;8.10;99.90;;;8.41;65.79;100886.53;4934652;29;20205;-74
2022/03/21 08:16:32;;;;;;;0.20;0.20;;;8.10;99.90;;;8.49;65.91;100895.50;4919367;29;20210;-73
2022/03/21 08:19:00;;;;;;;0.10;0.10;;;8.20;99.90;;;8.62;65.24;100880.88;4918210;29;20211;-78
2022/03/21 08:21:28;;;;;;;0.30;0.30;;;8.30;99.90;;;8.82;64.44;100884.00;4919034;29;20210;-74
2022/03/21 08:23:56;;;;;;;0.20;0.20;;;8.40;99.90;;;8.97;63.00;100866.75;4925514;29;20199;-74
2022/03/21 08:26:30;;;;;;;0.20;0.20;;;8.50;99.90;;;8.88;63.51;100836.66;4934031;29;20699;-74
2022/03/21 08:28:58;;;;;;;0.10;0.10;;;8.60;99.90;;;8.92;63.33;100849.06;4928135;29;20199;-74
2022/03/21 08:31:25;;;;;;;0.10;0.10;;;8.60;99.90;;;9.04;62.66;100844.03;4923637;29;20215;-74
2022/03/21 08:33:54;;;;;;;0.20;0.20;;;8.70;99.90;;;9.07;63.20;100844.13;4926928;29;20672;-75
2022/03/21 08:36:21;;;;;;;0.10;0.10;;;8.80;99.90;;;9.28;63.78;100873.63;4930776;29;20215;-74
2022/03/21 08:38:49;;;;;;;0.20;0.20;;;8.90;99.90;;;9.32;64.51;100879.88;4935687;29;20214;-72
2022/03/21 08:41:18;;;;;;;0.30;0.30;;;9.00;99.90;;;9.33;64.48;100879.00;4931463;29;20227;-72
2022/03/21 08:43:46;;;;;;;0.30;0.30;;;9.10;99.90;;;9.48;64.92;100907.47;4931530;29;20217;-73
2022/03/21 08:46:15;;;;;;;0.85;0.85;;;9.10;99.90;;;9.64;63.48;100880.53;4935170;29;20720;-75
2022/03/21 08:51:50;;;;;;;0.20;0.20;;;9.30;99.90;;;9.71;62.63;100850.72;4908975;29;20687;-72
2022/03/21 08:54:18;;;;;;;0.20;0.20;;;9.40;99.90;;;9.83;62.20;100845.66;4928564;29;20228;-74
2022/03/21 08:56:47;;;;;;;0.10;0.10;;;9.50;99.90;;;10.00;60.81;100826.59;4933559;29;20203;-74
2022/03/21 08:59:16;;;;;;;0.40;0.40;;;9.60;99.90;;;10.04;61.44;100817.84;4934395;29;20207;-75
2022/03/21 09:01:44;;;;;;;0.10;0.10;;;9.60;99.90;;;10.02;60.95;100801.09;4935163;29;20207;-73
2022/03/21 09:04:13;;;;;;;0.20;0.20;;;9.70;99.90;;;10.16;61.22;100818.06;4934338;29;20222;-72
2022/03/21 09:06:41;;;;;;;0.90;0.90;;;9.80;99.90;;;10.11;60.54;100794.19;4924780;29;20223;-72
2022/03/21 09:09:10;;;;;;;0.10;0.10;;;9.90;99.90;;;10.25;61.59;100823.53;4934454;29;20203;-73
2022/03/21 09:11:39;;;;;;;0.10;0.10;;;10.00;99.90;;;10.56;62.72;100873.44;4935231;29;20215;-73
2022/03/21 09:14:08;;;;;;;0.20;0.20;;;10.10;99.90;;;10.59;60.62;100814.41;4932736;29;20210;-73
2022/03/21 09:16:42;;;;;;;0.20;0.20;;;10.20;99.90;;;10.76;61.55;100849.94;4930696;29;20194;-74
2022/03/21 09:19:11;;;;;;;0.10;0.10;;;10.30;99.90;;;10.76;61.29;100834.06;4924172;29;20718;-74
2022/03/21 09:21:39;;;;;;;0.15;0.15;;;10.40;99.90;;;10.76;60.73;100818.19;4934431;29;20202;-75
2022/03/21 09:24:10;;;;;;;0.20;0.20;;;10.40;99.90;;;10.86;60.19;100808.63;4931557;29;20575;-75
2022/03/21 09:26:38;;;;;;;0.20;0.20;;;10.50;99.90;;;10.95;59.85;100798.16;4930693;29;20202;-77
2022/03/21 09:29:10;;;;;;;0.10;0.10;;;10.60;99.90;;;10.98;59.50;100786.72;4931744;29;20207;-75
2022/03/21 09:31:40;;;;;;;0.20;0.20;;;10.60;99.90;;;11.17;58.93;100783.44;4930301;29;20207;-75
2022/03/21 09:34:11;;;;;;;0.13;0.13;;;10.80;99.90;;;10.98;59.16;100739.09;4926123;29;20211;-74
2022/03/21 09:36:39;;;;;;;0.30;0.30;;;10.90;99.90;;;11.11;59.03;100736.63;4933263;29;20218;-74
2022/03/21 09:39:08;;;;;;;0.20;0.20;;;10.90;99.90;;;11.75;59.10;100821.22;4928512;29;20226;-75
2022/03/21 09:41:36;;;;;;;0.20;0.20;;;11.20;99.90;;;11.42;59.11;100747.53;4932081;29;20577;-75
2022/03/21 09:44:09;;;;;;;0.30;0.30;;;11.30;99.90;;;11.84;60.68;100832.81;4932228;29;20214;-76
2022/03/21 09:46:40;;;;;;;0.20;0.20;;;11.50;99.90;;;12.04;60.32;100825.06;4928984;29;20194;-74
2022/03/21 09:49:10;;;;;;;0.20;0.20;;;11.70;99.90;;;12.07;60.40;100814.47;4931242;29;20202;-75
2022/03/21 09:51:40;;;;;;;0.20;0.20;;;11.80;99.90;;;12.25;58.98;100792.53;4931238;29;20207;-76
2022/03/21 09:54:09;;;;;;;0.50;0.50;;;12.00;99.90;;;12.52;59.59;100820.16;4931008;29;20203;-75
2022/03/21 09:56:41;;;;;;;0.10;0.10;;;12.10;99.90;;;12.28;58.16;100733.34;4912803;29;20210;-76
2022/03/21 09:59:12;;;;;;;0.20;0.20;;;12.40;99.90;;;12.31;59.05;100734.25;4929743;29;20210;-74
2022/03/21 10:01:53;;;;;;;0.10;0.10;;;12.40;99.90;;;12.85;59.95;100823.03;4930917;29;20202;-75
2022/03/21 10:04:24;;;;;;;0.20;0.20;;;12.60;99.90;;;13.07;59.13;100809.00;4917513;29;20219;-74
2022/03/21 10:06:59;;;;;;;0.10;0.10;;;12.90;99.90;;;13.08;59.21;100792.19;4930587;29;20217;-76
2022/03/21 10:09:27;;;;;;;0.10;0.10;;;13.00;99.90;;;12.87;57.63;100707.13;4913438;29;20226;-75
2022/03/21 10:11:58;;;;;;;0.10;0.10;;;13.10;99.90;;;12.82;57.60;100692.94;4930883;29;20210;-77
2022/03/21 10:14:29;;;;;;;0.10;0.10;;;13.20;99.90;;;13.26;58.06;100735.66;4929974;29;20210;-74
2022/03/21 10:17:05;;;;;;;0.10;0.10;;;13.30;99.90;;;13.22;56.69;100690.50;4931451;29;20217;-73
2022/03/21 10:19:49;;;;;;;0.20;0.20;;;13.50;99.90;;;13.82;58.99;100792.44;4913515;29;20246;-74
2022/03/21 10:22:46;;;;;;;0.10;0.10;;;13.80;99.90;;;14.19;56.14;100754.34;4930186;29;20214;-75
2022/03/21 10:25:20;;;;;;;0.10;0.10;;;14.10;99.90;;;14.02;56.38;100703.84;4929331;29;20214;-73
2022/03/21 10:27:53;;;;;;;0.40;0.40;;;14.50;99.90;;;13.76;55.30;100623.22;4930192;29;20230;-72
2022/03/21 10:30:24;;;;;;;0.30;0.30;;;14.40;99.90;;;13.87;54.51;100596.63;4914109;29;20222;-72
2022/03/21 10:32:58;;;;;;;0.13;0.13;;;14.60;99.90;;;13.95;56.12;100624.06;4929596;29;20194;-72
2022/03/21 10:35:31;;;;;;;0.10;0.10;;;14.80;99.90;;;14.28;55.32;100655.91;4929937;29;20214;-72
2022/03/21 10:38:03;;;;;;;0.40;0.40;;;14.90;99.90;;;14.51;55.35;100671.00;4930591;29;20202;-72
2022/03/21 10:40:44;;;;;;;0.20;0.20;;;15.10;99.90;;;14.49;56.02;100657.69;4930400;29;20226;-73
2022/03/21 10:43:15;;;;;;;0.17;0.17;;;15.20;99.90;;;14.50;54.34;100610.69;4931001;29;20206;-72
2022/03/21 10:45:53;;;;;;;0.60;0.60;;;15.30;99.90;;;14.41;54.59;100558.34;4931165;29;20201;-72
2022/03/21 10:48:26;;;;;;;0.20;0.20;;;15.30;99.90;;;14.52;56.17;100612.44;4932123;29;20236;-72
2022/03/21 10:50:57;;;;;;;0.70;0.70;;;15.40;99.90;;;15.00;56.16;100677.00;4931815;29;20218;-72
2022/03/21 10:53:29;;;;;;;0.30;0.30;;;15.60;99.90;;;15.58;55.24;100703.31;4933607;29;20226;-74
2022/03/21 10:56:09;;;;;;;0.40;0.40;;;16.20;99.90;;;15.57;56.40;100697.09;4934659;29;20202;-75
2022/03/21 10:58:49;;;;;;;0.50;0.50;;;16.30;99.90;;;15.61;55.12;100650.88;4933991;29;20292;-75
2022/03/21 11:01:26;;;;;;;0.40;0.40;;;16.30;99.90;;;15.25;55.10;100558.72;4932985;29;20245;-75
2022/03/21 11:03:59;;;;;;;0.28;0.28;;;16.50;99.90;;;15.09;54.59;100484.28;4933258;29;20206;-73